createdAt,value
2019-03-22T00:00:29.636Z,107.77
2019-03-22T00:02:58.048Z,100.93
2019-03-22T00:05:26.757Z,113.73
2019-03-22T00:07:56.082Z,110.53
2019-03-22T00:10:23.465Z,108.43
2019-03-22T00:12:51.117Z,120.37
2019-03-22T00:15:18.370Z,118.70
2019-03-22T00:17:45.986Z,100.33
2019-03-22T00:20:13.589Z,101.37
2019-03-22T00:22:40.856Z,87.97
2019-03-22T00:25:08.273Z,110.10
2019-03-22T00:27:35.463Z,110.60
2019-03-22T00:30:03.222Z,107.10
2019-03-22T00:32:30.484Z,86.63
2019-03-22T00:34:57.711Z,88.03
2019-03-22T00:37:24.871Z,92.67
2019-03-22T00:39:52.064Z,88.13
2019-03-22T00:42:22.560Z,80.50
2019-03-22T00:44:49.733Z,86.43
2019-03-22T00:47:16.864Z,75.23
2019-03-22T00:49:44.285Z,81.87
2019-03-22T00:52:11.533Z,75.37
2019-03-22T00:54:38.991Z,75.30
2019-03-22T00:57:06.277Z,86.07
2019-03-22T00:59:33.820Z,72.83
2019-03-22T01:02:00.980Z,79.80
2019-03-22T01:04:28.244Z,71.93
2019-03-22T01:06:55.600Z,82.23
2019-03-22T01:09:22.757Z,80.73
2019-03-22T01:11:49.968Z,61.53
2019-03-22T01:14:17.148Z,72.70
2019-03-22T01:16:44.491Z,70.47
2019-03-22T01:19:11.749Z,60.50
2019-03-22T01:21:39.208Z,65.33
2019-03-22T01:24:06.358Z,67.10
2019-03-22T01:26:33.505Z,65.23
2019-03-22T01:29:00.647Z,66.20
2019-03-22T01:31:27.868Z,69.77
2019-03-22T01:33:55.048Z,68.53
2019-03-22T01:36:22.200Z,72.60
2019-03-22T01:38:49.320Z,65.10
2019-03-22T01:41:16.576Z,72.30
2019-03-22T01:43:43.814Z,74.50
2019-03-22T01:46:11.015Z,70.83
2019-03-22T01:48:38.147Z,68.50
2019-03-22T01:51:05.276Z,72.07
2019-03-22T01:53:32.390Z,68.13
2019-03-22T01:55:59.599Z,63.33
2019-03-22T01:58:26.724Z,73.03
2019-03-22T02:00:54.141Z,66.47
2019-03-22T02:03:21.385Z,64.87
2019-03-22T02:05:49.552Z,68.30
2019-03-22T02:08:16.717Z,65.47
2019-03-22T02:10:43.861Z,66.67
2019-03-22T02:13:10.995Z,65.07
2019-03-22T02:15:38.192Z,67.83
2019-03-22T02:18:05.333Z,63.90
2019-03-22T02:20:32.539Z,67.27
2019-03-22T02:22:59.660Z,68.10
2019-03-22T02:25:27.063Z,70.27
2019-03-22T02:28:03.796Z,74.70
2019-03-22T02:30:23.358Z,72.27
2019-03-22T02:32:50.816Z,70.40
2019-03-22T02:35:28.461Z,72.27
2019-03-22T02:37:47.111Z,74.10
2019-03-22T02:40:14.969Z,80.93
2019-03-22T02:42:42.437Z,88.97
2019-03-22T02:45:10.329Z,85.23
2019-03-22T02:47:37.586Z,84.93
2019-03-22T02:50:17.715Z,79.87
2019-03-22T02:52:35.677Z,86.57
2019-03-22T02:55:03.016Z,89.40
2019-03-22T02:57:30.275Z,85.03
2019-03-22T02:59:57.407Z,87.67
2019-03-22T03:02:24.689Z,88.10
2019-03-22T03:04:51.822Z,80.10
2019-03-22T03:07:18.979Z,84.33
2019-03-22T03:09:46.239Z,86.87
2019-03-22T03:12:13.418Z,82.37
2019-03-22T03:14:40.618Z,91.97
2019-03-22T03:17:07.769Z,91.43
2019-03-22T03:19:35.057Z,87.37
2019-03-22T03:22:02.224Z,94.67
2019-03-22T03:24:29.384Z,98.67
2019-03-22T03:26:56.643Z,96.67
2019-03-22T03:29:23.794Z,98.00
2019-03-22T03:31:51.065Z,96.40
2019-03-22T03:34:18.205Z,102.00
2019-03-22T03:36:45.349Z,100.07
2019-03-22T03:39:12.595Z,101.37
2019-03-22T03:41:39.933Z,104.37
2019-03-22T03:44:07.089Z,100.70
2019-03-22T03:46:34.310Z,101.07
2019-03-22T03:49:01.711Z,94.73
2019-03-22T03:51:28.865Z,88.70
2019-03-22T03:53:56.174Z,96.77
2019-03-22T03:56:23.407Z,103.97
2019-03-22T03:58:52.649Z,108.07
2019-03-22T04:01:19.724Z,94.80
2019-03-22T04:03:47.111Z,94.77
2019-03-22T04:06:14.378Z,82.90
2019-03-22T04:08:41.588Z,84.73
2019-03-22T04:11:09.132Z,91.13
2019-03-22T04:13:36.261Z,86.90
2019-03-22T04:16:03.464Z,94.50
2019-03-22T04:18:30.672Z,92.83
2019-03-22T04:20:57.921Z,105.20
2019-03-22T04:23:25.180Z,94.60
2019-03-22T04:25:52.532Z,97.17
2019-03-22T04:28:19.657Z,95.73
2019-03-22T04:30:47.389Z,95.93
2019-03-22T04:33:14.680Z,104.03
2019-03-22T04:35:42.025Z,96.23
2019-03-22T04:38:09.270Z,94.00
2019-03-22T04:40:36.520Z,91.00
2019-03-22T04:43:03.813Z,85.27
2019-03-22T04:45:34.589Z,79.77
2019-03-22T04:48:13.012Z,90.23
2019-03-22T04:50:42.881Z,83.13
2019-03-22T04:53:14.167Z,97.63
2019-03-22T04:55:44.383Z,96.83
2019-03-22T04:58:13.098Z,92.17
2019-03-22T05:00:41.535Z,84.57
2019-03-22T05:03:10.008Z,79.90
2019-03-22T05:05:37.460Z,87.47
2019-03-22T05:08:05.927Z,90.90
2019-03-22T05:10:34.912Z,85.23
2019-03-22T05:13:02.672Z,101.10
2019-03-22T05:15:31.445Z,100.60
2019-03-22T05:18:00.187Z,89.23
2019-03-22T05:20:28.193Z,88.17
2019-03-22T05:22:56.409Z,94.57
2019-03-22T05:25:26.177Z,94.03
2019-03-22T05:27:54.690Z,87.53
2019-03-22T05:31:12.157Z,79.80
2019-03-22T05:33:39.300Z,79.17
2019-03-22T05:36:06.475Z,81.10
2019-03-22T05:38:33.648Z,81.33
2019-03-22T05:41:00.775Z,77.47
2019-03-22T05:43:27.901Z,78.90
2019-03-22T05:45:55.098Z,80.90
2019-03-22T05:48:22.376Z,86.30
2019-03-22T05:50:49.575Z,79.83
2019-03-22T05:53:17.061Z,87.87
2019-03-22T05:55:44.204Z,82.77
2019-03-22T05:58:11.492Z,77.90
2019-03-22T06:00:38.812Z,82.60
2019-03-22T06:03:06.013Z,80.13
2019-03-22T06:05:33.149Z,80.23
2019-03-22T06:08:00.372Z,81.57
2019-03-22T06:10:27.653Z,72.10
2019-03-22T06:12:54.774Z,77.33
2019-03-22T06:15:21.924Z,74.83
2019-03-22T06:17:51.936Z,77.57
2019-03-22T06:20:19.124Z,77.43
2019-03-22T06:22:46.340Z,69.73
2019-03-22T06:25:13.532Z,79.73
2019-03-22T06:27:40.725Z,68.00
2019-03-22T06:30:08.304Z,65.60
2019-03-22T06:32:35.469Z,70.70
2019-03-22T06:35:03.160Z,67.23
2019-03-22T06:37:30.370Z,66.07
2019-03-22T06:39:57.483Z,71.13
2019-03-22T06:42:24.592Z,66.70
2019-03-22T06:44:51.789Z,71.40
2019-03-22T06:47:18.987Z,68.90
2019-03-22T06:49:46.128Z,69.70
2019-03-22T06:52:13.309Z,71.43
2019-03-22T06:54:40.469Z,73.27
2019-03-22T06:57:07.733Z,70.90
2019-03-22T06:59:34.905Z,71.40
2019-03-22T07:02:03.252Z,71.90
2019-03-22T07:04:30.504Z,70.13
2019-03-22T07:06:57.635Z,71.73
2019-03-22T07:09:24.768Z,69.47
2019-03-22T07:11:51.901Z,73.63
2019-03-22T07:14:19.324Z,71.90
2019-03-22T07:16:46.616Z,65.03
2019-03-22T07:19:13.744Z,71.47
2019-03-22T07:21:41.095Z,67.20
2019-03-22T07:24:08.293Z,67.27
2019-03-22T07:26:35.413Z,80.80
2019-03-22T07:29:02.783Z,67.97
2019-03-22T07:31:29.973Z,75.13
2019-03-22T07:33:57.209Z,68.13
2019-03-22T07:36:24.335Z,74.37
2019-03-22T07:38:51.495Z,64.53
2019-03-22T07:41:18.639Z,71.53
2019-03-22T07:43:46.104Z,70.80
2019-03-22T07:46:13.265Z,72.07
2019-03-22T07:48:40.494Z,73.30
2019-03-22T07:51:07.643Z,70.77
2019-03-22T07:53:34.917Z,80.20
2019-03-22T07:56:02.217Z,67.87
2019-03-22T07:58:29.679Z,63.40
2019-03-22T08:00:56.885Z,62.97
2019-03-22T08:03:24.133Z,70.73
2019-03-22T08:05:51.687Z,65.90
2019-03-22T08:08:19.225Z,70.03
2019-03-22T08:10:46.474Z,70.93
2019-03-22T08:13:13.652Z,89.83
2019-03-22T08:15:40.777Z,76.40
2019-03-22T08:18:07.908Z,75.90
2019-03-22T08:20:35.139Z,154.83
2019-03-22T08:29:33.368Z,73.97
2019-03-22T08:32:00.932Z,59.60
2019-03-22T08:34:28.152Z,71.07
2019-03-22T08:36:55.424Z,66.93
2019-03-22T08:41:51.473Z,86.23
2019-03-22T08:44:19.749Z,74.70
2019-03-22T08:46:47.001Z,66.77
2019-03-22T08:49:14.247Z,64.90
2019-03-22T08:51:41.596Z,74.17
2019-03-22T08:54:08.785Z,68.60
2019-03-22T08:56:36.418Z,74.00
2019-03-22T08:59:03.925Z,75.70
2019-03-22T09:01:31.209Z,83.20
2019-03-22T09:03:58.376Z,68.63
2019-03-22T09:06:25.704Z,89.17
2019-03-22T09:08:53.188Z,79.77
2019-03-22T09:11:20.470Z,76.60
2019-03-22T09:13:47.925Z,69.97
2019-03-22T09:16:15.247Z,79.70
2019-03-22T09:18:42.445Z,71.93
2019-03-22T09:21:09.702Z,69.87
2019-03-22T09:23:43.980Z,79.30
2019-03-22T09:26:11.477Z,75.33
2019-03-22T09:28:38.726Z,67.73
2019-03-22T09:31:13.060Z,68.27
2019-03-22T09:33:34.965Z,72.80
2019-03-22T09:36:02.250Z,64.53
2019-03-22T09:38:29.523Z,64.23
2019-03-22T09:40:56.847Z,70.33
2019-03-22T09:43:24.041Z,70.53
2019-03-22T09:45:51.176Z,72.03
2019-03-22T09:48:18.453Z,61.77
2019-03-22T09:50:45.627Z,67.37
2019-03-22T09:53:12.825Z,66.70
2019-03-22T09:55:40.119Z,67.03
2019-03-22T09:58:07.368Z,63.10
2019-03-22T10:00:34.721Z,60.00
2019-03-22T10:03:02.787Z,71.30
2019-03-22T10:05:30.189Z,66.43
2019-03-22T10:07:57.724Z,60.93
2019-03-22T10:10:25.105Z,62.87
2019-03-22T10:12:52.365Z,65.40
2019-03-22T10:15:19.620Z,64.10
2019-03-22T10:17:46.867Z,64.43
2019-03-22T10:20:14.183Z,72.17
2019-03-22T10:22:41.372Z,62.13
2019-03-22T10:25:08.907Z,59.80
2019-03-22T10:27:36.040Z,63.53
2019-03-22T10:30:04.469Z,65.37
2019-03-22T10:32:31.765Z,61.37
2019-03-22T10:34:59.098Z,68.67
2019-03-22T10:37:26.365Z,69.93
2019-03-22T10:39:53.664Z,64.23
2019-03-22T10:42:20.961Z,74.77
2019-03-22T10:44:48.429Z,65.87
2019-03-22T10:47:18.073Z,63.50
2019-03-22T10:49:44.730Z,63.90
2019-03-22T10:52:12.075Z,68.77
2019-03-22T10:54:40.454Z,67.77
2019-03-22T10:57:07.664Z,62.37
2019-03-22T10:59:34.792Z,65.03
2019-03-22T11:02:03.564Z,74.37
2019-03-22T11:04:31.188Z,59.37
2019-03-22T11:06:58.374Z,59.03
2019-03-22T11:09:25.546Z,66.60
2019-03-22T11:11:52.684Z,64.07
2019-03-22T11:14:19.819Z,59.20
2019-03-22T11:16:47.313Z,59.47
2019-03-22T11:19:14.501Z,67.27
2019-03-22T11:21:41.667Z,64.30
2019-03-22T11:24:08.866Z,56.70
2019-03-22T11:26:36.137Z,60.90
2019-03-22T11:29:04.131Z,64.00
2019-03-22T11:31:39.546Z,64.20
2019-03-22T11:34:00.461Z,63.47
2019-03-22T11:36:27.691Z,66.50
2019-03-22T11:38:55.171Z,69.97
2019-03-22T11:41:22.468Z,67.07
2019-03-22T11:43:49.644Z,69.80
2019-03-22T11:46:16.821Z,67.93
2019-03-22T11:48:44.017Z,71.80
2019-03-22T11:51:11.269Z,69.87
2019-03-22T11:53:38.458Z,75.30
2019-03-22T11:56:05.859Z,69.23
2019-03-22T11:58:32.989Z,67.93
2019-03-22T12:01:00.840Z,74.10
2019-03-22T12:03:28.137Z,70.97
2019-03-22T12:05:55.340Z,72.30
2019-03-22T12:08:25.463Z,65.47
2019-03-22T12:10:52.919Z,80.73
2019-03-22T12:13:20.144Z,73.00
2019-03-22T12:15:47.517Z,72.27
2019-03-22T12:18:14.729Z,69.60
2019-03-22T12:20:42.085Z,68.80
2019-03-22T12:23:09.444Z,64.93
2019-03-22T12:25:36.752Z,65.57
2019-03-22T12:28:04.194Z,79.00
2019-03-22T12:30:31.417Z,71.33
2019-03-22T12:32:58.862Z,69.50
2019-03-22T12:35:26.106Z,67.17
2019-03-22T12:37:53.431Z,72.93
2019-03-22T12:40:20.925Z,67.63
2019-03-22T12:42:48.687Z,74.63
2019-03-22T12:45:19.152Z,78.00
2019-03-22T12:47:47.481Z,74.90
2019-03-22T12:50:15.409Z,79.43
2019-03-22T12:52:42.544Z,76.40
2019-03-22T12:55:10.309Z,79.97
2019-03-22T12:57:37.477Z,77.10
2019-03-22T13:00:06.073Z,77.63
2019-03-22T13:02:42.030Z,81.53
2019-03-22T13:05:03.107Z,80.50
2019-03-22T13:07:30.276Z,81.60
2019-03-22T13:09:57.553Z,78.93
2019-03-22T13:12:24.732Z,83.00
2019-03-22T13:14:51.872Z,81.33
2019-03-22T13:17:19.057Z,78.20
2019-03-22T13:19:46.201Z,80.30
2019-03-22T13:22:13.789Z,80.20
2019-03-22T13:24:40.974Z,77.73
2019-03-22T13:27:08.184Z,65.83
2019-03-22T13:29:35.387Z,74.37
2019-03-22T13:32:02.780Z,68.20
2019-03-22T13:34:30.197Z,68.17
2019-03-22T13:36:57.588Z,76.47
2019-03-22T13:39:24.769Z,69.23
2019-03-22T13:41:51.961Z,70.87
2019-03-22T13:44:19.185Z,79.50
2019-03-22T13:46:46.337Z,72.90
2019-03-22T13:49:13.501Z,69.37
2019-03-22T13:51:40.651Z,67.80
2019-03-22T13:54:07.771Z,72.37
2019-03-22T13:56:35.056Z,66.03
2019-03-22T13:59:02.249Z,64.00
2019-03-22T14:01:29.459Z,72.13
2019-03-22T14:03:56.717Z,77.10
2019-03-22T14:06:23.970Z,66.67
2019-03-22T14:08:51.143Z,59.60
2019-03-22T14:11:18.277Z,53.63
2019-03-22T14:13:45.457Z,60.47
2019-03-22T14:16:12.615Z,61.93
2019-03-22T14:18:39.748Z,54.27
2019-03-22T14:21:06.964Z,49.97
2019-03-22T14:23:34.099Z,49.60
2019-03-22T14:26:01.297Z,52.83
2019-03-22T14:28:28.768Z,57.57
2019-03-22T14:30:56.021Z,57.20
2019-03-22T14:33:23.353Z,57.80
2019-03-22T14:35:50.632Z,48.30
2019-03-22T14:38:17.887Z,50.47
2019-03-22T14:40:45.037Z,60.00
2019-03-22T14:43:12.358Z,56.70
2019-03-22T14:45:39.589Z,59.60
2019-03-22T14:48:06.771Z,52.70
2019-03-22T14:50:34.008Z,55.17
2019-03-22T14:53:01.172Z,59.60
2019-03-22T14:55:28.394Z,50.67
2019-03-22T14:57:55.649Z,56.77
2019-03-22T15:00:22.784Z,56.77
2019-03-22T15:02:49.946Z,62.73
2019-03-22T15:05:17.284Z,54.90
2019-03-22T15:07:44.698Z,54.63
2019-03-22T15:10:13.193Z,46.90
2019-03-22T15:12:40.781Z,48.13
2019-03-22T15:15:15.656Z,50.27
2019-03-22T15:18:00.685Z,49.53
2019-03-22T15:20:42.006Z,48.23
2019-03-22T15:23:28.167Z,46.03
2019-03-22T15:26:13.966Z,46.43
2019-03-22T15:29:00.057Z,51.23
2019-03-22T15:31:39.948Z,47.33
2019-03-22T15:34:16.533Z,46.40
2019-03-22T15:36:53.806Z,48.63
2019-03-22T15:39:39.636Z,47.07
2019-03-22T15:42:06.816Z,50.63
2019-03-22T15:44:34.404Z,54.33
2019-03-22T15:47:01.812Z,47.13
2019-03-22T15:49:29.005Z,48.43
2019-03-22T15:51:56.371Z,63.57
2019-03-22T15:54:23.623Z,53.60
2019-03-22T15:56:50.878Z,49.20
2019-03-22T15:59:18.154Z,52.97
2019-03-22T16:01:45.350Z,47.07
2019-03-22T16:04:12.537Z,46.57
2019-03-22T16:06:39.745Z,51.20
2019-03-22T16:09:07.246Z,47.53
2019-03-22T16:11:34.390Z,46.93
2019-03-22T16:14:01.664Z,50.50
2019-03-22T16:16:28.814Z,46.17
2019-03-22T16:18:56.270Z,51.03
2019-03-22T16:21:23.455Z,42.93
2019-03-22T16:23:50.592Z,45.73
2019-03-22T16:26:17.959Z,50.00
2019-03-22T16:28:45.197Z,54.23
2019-03-22T16:31:12.409Z,48.03
2019-03-22T16:33:40.127Z,55.30
2019-03-22T16:36:07.259Z,47.67
2019-03-22T16:38:34.419Z,47.43
2019-03-22T16:41:01.565Z,50.17
2019-03-22T16:43:28.699Z,46.60
2019-03-22T16:45:55.867Z,46.67
2019-03-22T16:48:22.991Z,50.63
2019-03-22T16:50:50.197Z,50.50
2019-03-22T16:53:17.876Z,50.60
2019-03-22T16:55:45.146Z,48.03
2019-03-22T16:58:12.314Z,55.40
2019-03-22T17:00:39.704Z,47.77
2019-03-22T17:03:07.035Z,53.50
2019-03-22T17:05:35.138Z,52.83
2019-03-22T17:08:02.798Z,51.50
2019-03-22T17:10:29.923Z,50.43
2019-03-22T17:12:57.203Z,53.00
2019-03-22T17:15:24.564Z,54.10
2019-03-22T17:17:51.728Z,56.93
2019-03-22T17:20:18.932Z,66.40
2019-03-22T17:22:46.125Z,53.40
2019-03-22T17:25:13.356Z,54.17
2019-03-22T17:27:40.494Z,60.17
2019-03-22T17:30:08.340Z,54.43
2019-03-22T17:32:35.580Z,65.13
2019-03-22T17:35:03.624Z,64.17
2019-03-22T17:37:30.764Z,63.40
2019-03-22T17:39:57.928Z,70.63
2019-03-22T17:42:25.085Z,64.90
2019-03-22T17:44:52.224Z,61.50
2019-03-22T17:47:19.405Z,65.60
2019-03-22T17:49:48.521Z,62.73
2019-03-22T17:52:15.582Z,65.97
2019-03-22T17:54:42.734Z,64.77
2019-03-22T17:57:18.367Z,67.40
2019-03-22T17:59:38.891Z,69.13
2019-03-22T18:02:06.053Z,60.17
2019-03-22T18:04:33.180Z,57.17
2019-03-22T18:07:00.395Z,64.70
2019-03-22T18:09:27.503Z,65.90
2019-03-22T18:11:54.675Z,69.63
2019-03-22T18:14:22.043Z,66.07
2019-03-22T18:16:49.443Z,69.80
2019-03-22T18:19:16.725Z,72.07
2019-03-22T18:21:44.633Z,75.13
2019-03-22T18:24:13.523Z,87.37
2019-03-22T18:26:40.704Z,85.30
2019-03-22T18:29:07.980Z,76.23
2019-03-22T18:31:35.227Z,75.67
2019-03-22T18:34:02.944Z,78.63
2019-03-22T18:36:31.229Z,75.73
2019-03-22T18:38:58.519Z,82.90
2019-03-22T18:41:25.693Z,80.50
2019-03-22T18:43:53.165Z,82.43
2019-03-22T18:46:20.476Z,71.90
2019-03-22T18:48:47.628Z,90.13
2019-03-22T18:51:14.863Z,88.27
2019-03-22T18:53:42.195Z,86.37
2019-03-22T18:56:09.436Z,90.87
2019-03-22T18:58:36.699Z,83.40
2019-03-22T19:01:04.010Z,86.43
2019-03-22T19:03:31.257Z,96.80
2019-03-22T19:05:58.469Z,96.30
2019-03-22T19:08:25.743Z,92.77
2019-03-22T19:10:52.925Z,90.13
2019-03-22T19:13:30.181Z,98.80
2019-03-22T19:15:49.799Z,97.03
2019-03-22T19:18:17.066Z,102.73
2019-03-22T19:20:44.199Z,102.20
2019-03-22T19:23:11.407Z,102.97
2019-03-22T19:25:38.778Z,117.00
2019-03-22T19:28:06.047Z,110.40
2019-03-22T19:30:35.344Z,111.57
2019-03-22T19:33:02.560Z,116.27
2019-03-22T19:35:29.760Z,119.90
2019-03-22T19:37:58.948Z,111.03
2019-03-22T19:40:26.323Z,107.50
2019-03-22T19:42:53.493Z,116.13
2019-03-22T19:45:20.815Z,120.10
2019-03-22T19:47:48.069Z,114.47
2019-03-22T19:50:15.452Z,118.20
2019-03-22T19:52:43.072Z,116.20
2019-03-22T19:55:11.349Z,112.87
2019-03-22T19:57:38.595Z,107.40
2019-03-22T20:00:06.526Z,115.93
2019-03-22T20:02:33.959Z,109.53
2019-03-22T20:05:04.869Z,116.90
2019-03-22T20:07:30.240Z,103.57
2019-03-22T20:09:58.687Z,114.53
2019-03-22T20:12:25.856Z,110.13
2019-03-22T20:14:53.000Z,112.17
2019-03-22T20:17:19.828Z,120.57
2019-03-22T20:19:47.068Z,116.57
2019-03-22T20:22:14.237Z,115.13
2019-03-22T20:24:41.436Z,114.20
2019-03-22T20:27:08.574Z,122.10
2019-03-22T20:29:35.691Z,121.40
2019-03-22T20:32:02.969Z,130.33
2019-03-22T20:34:30.318Z,114.80
2019-03-22T20:36:57.452Z,125.80
2019-03-22T20:39:25.664Z,124.00
2019-03-22T20:41:52.852Z,117.13
2019-03-22T20:44:20.271Z,112.07
2019-03-22T20:46:47.505Z,119.77
2019-03-22T20:49:14.688Z,119.70
2019-03-22T20:51:41.857Z,122.53
2019-03-22T20:54:09.120Z,108.50
2019-03-22T20:56:36.272Z,131.90
2019-03-22T20:59:03.712Z,117.67
2019-03-22T21:01:30.882Z,126.60
2019-03-22T21:03:58.167Z,124.20
2019-03-22T21:06:25.450Z,125.10
2019-03-22T21:08:52.615Z,128.53
2019-03-22T21:11:19.792Z,120.73
2019-03-22T21:13:47.004Z,118.67
2019-03-22T21:16:14.173Z,131.23
2019-03-22T21:18:41.346Z,126.73
2019-03-22T21:21:08.581Z,124.93
2019-03-22T21:23:36.782Z,135.67
2019-03-22T21:26:04.539Z,129.90
2019-03-22T21:28:31.805Z,124.67
2019-03-22T21:30:59.071Z,136.13
2019-03-22T21:33:26.528Z,127.67
2019-03-22T21:35:53.775Z,148.70
2019-03-22T21:38:20.967Z,130.87
2019-03-22T21:40:48.130Z,132.33
2019-03-22T21:43:15.410Z,149.20
2019-03-22T21:45:42.630Z,135.30
2019-03-22T21:48:09.817Z,135.67
2019-03-22T21:50:36.985Z,134.33
2019-03-22T21:53:04.209Z,141.80
2019-03-22T21:55:31.427Z,132.93
2019-03-22T21:57:58.576Z,147.00
2019-03-22T22:00:25.720Z,140.20
2019-03-22T22:02:53.168Z,131.70
2019-03-22T22:05:20.317Z,145.90
2019-03-22T22:07:47.535Z,151.80
2019-03-22T22:10:14.770Z,146.30
2019-03-22T22:12:42.105Z,144.70
2019-03-22T22:15:10.504Z,143.10
2019-03-22T22:17:39.346Z,152.47
2019-03-22T22:20:06.742Z,159.77
2019-03-22T22:22:33.932Z,144.97
2019-03-22T22:25:01.218Z,142.93
2019-03-22T22:27:28.572Z,148.30
2019-03-22T22:29:56.056Z,148.63
2019-03-22T22:32:23.540Z,158.03
2019-03-22T22:34:50.728Z,154.03
2019-03-22T22:37:18.006Z,160.67
2019-03-22T22:39:45.180Z,146.67
2019-03-22T22:42:12.359Z,155.00
2019-03-22T22:44:39.565Z,159.97
2019-03-22T22:47:06.794Z,151.23
2019-03-22T22:49:34.002Z,159.30
2019-03-22T22:52:01.140Z,157.60
2019-03-22T22:54:28.321Z,149.43
2019-03-22T22:56:55.462Z,161.03
2019-03-22T22:59:22.596Z,151.20
2019-03-22T23:01:49.848Z,155.60
2019-03-22T23:04:17.049Z,162.97
2019-03-22T23:06:44.310Z,169.30
2019-03-22T23:09:11.686Z,170.87
2019-03-22T23:11:38.853Z,169.47
2019-03-22T23:14:06.247Z,161.50
2019-03-22T23:16:33.506Z,166.00
2019-03-22T23:19:00.727Z,158.43
2019-03-22T23:21:27.963Z,179.33
2019-03-22T23:23:55.176Z,165.50
2019-03-22T23:26:22.377Z,168.40
2019-03-22T23:28:49.637Z,163.10
2019-03-22T23:31:16.916Z,169.00
2019-03-22T23:33:44.068Z,172.97
2019-03-22T23:36:19.739Z,180.33
2019-03-22T23:38:40.287Z,178.07
2019-03-22T23:41:07.455Z,196.23
2019-03-22T23:43:34.975Z,169.60
2019-03-22T23:46:02.224Z,168.63
2019-03-22T23:48:29.355Z,176.30
2019-03-22T23:50:56.548Z,174.33
2019-03-22T23:53:23.695Z,179.87
2019-03-22T23:55:50.832Z,188.90
2019-03-22T23:58:18.021Z,189.93
